Tyrone, New York
Current Conditions -  °F | °C
As of 12:53 AM on Sunday 26 Oct 2014 (Local Time) from KPEO Reporting Station
Scattered Clouds Scattered Clouds  
Wind Chill: 10°   Ceiling: Unl
Heat Index: 10°   Visibility: 10mi
Dew Point:   Wind: 6mph
Humidity: 74%   Direction: 290°WNW
Pressure: 29.61"   Gusts: NA
Location:  42.41°N, 77.06°W
Report Text: KPEO 260453Z AUTO 29005KT 10SM SCT060 10/06 A2961 RMK AO2 RAE0359 TSE03 SLP026 P0000 T01000056 402000089
Loading
Personal Weather Stations






























Interactive Weather Map
Tropical Storm Tracking
New forecast layout! Learn more

10-Day Weather Forecast

Advertisements
Track Severe Weather on mobile